sensor_id;sensor_type;location;lat;lon;timestamp;P1;durP1;ratioP1;P2;durP2;ratioP2
79403;SDS011;68858;48.642;9.142;2023-12-29T00:00:29;2.90;;;1.80;;
79403;SDS011;68858;48.642;9.142;2023-12-29T00:02:55;2.13;;;1.70;;
79403;SDS011;68858;48.642;9.142;2023-12-29T00:05:20;1.67;;;1.57;;
79403;SDS011;68858;48.642;9.142;2023-12-29T00:07:46;1.90;;;1.70;;
79403;SDS011;68858;48.642;9.142;2023-12-29T00:10:11;1.90;;;1.80;;
79403;SDS011;68858;48.642;9.142;2023-12-29T00:12:36;1.70;;;1.60;;
79403;SDS011;68858;48.642;9.142;2023-12-29T00:15:02;1.53;;;1.43;;
79403;SDS011;68858;48.642;9.142;2023-12-29T00:17:28;1.77;;;1.67;;
79403;SDS011;68858;48.642;9.142;2023-12-29T00:19:53;2.10;;;1.70;;
79403;SDS011;68858;48.642;9.142;2023-12-29T00:22:20;1.83;;;1.60;;
79403;SDS011;68858;48.642;9.142;2023-12-29T00:24:46;2.53;;;1.80;;
79403;SDS011;68858;48.642;9.142;2023-12-29T00:27:11;1.50;;;1.40;;
79403;SDS011;68858;48.642;9.142;2023-12-29T00:29:39;1.77;;;1.63;;
79403;SDS011;68858;48.642;9.142;2023-12-29T00:32:04;2.33;;;1.90;;
79403;SDS011;68858;48.642;9.142;2023-12-29T00:34:30;1.87;;;1.77;;
79403;SDS011;68858;48.642;9.142;2023-12-29T00:36:55;1.93;;;1.63;;
79403;SDS011;68858;48.642;9.142;2023-12-29T00:39:21;1.80;;;1.70;;
79403;SDS011;68858;48.642;9.142;2023-12-29T00:41:53;1.73;;;1.63;;
79403;SDS011;68858;48.642;9.142;2023-12-29T00:44:21;3.20;;;2.90;;
79403;SDS011;68858;48.642;9.142;2023-12-29T00:46:46;1.97;;;1.83;;
79403;SDS011;68858;48.642;9.142;2023-12-29T00:49:12;3.77;;;2.00;;
79403;SDS011;68858;48.642;9.142;2023-12-29T00:51:40;2.13;;;1.80;;
79403;SDS011;68858;48.642;9.142;2023-12-29T00:54:08;1.93;;;1.83;;
79403;SDS011;68858;48.642;9.142;2023-12-29T00:56:34;2.60;;;2.07;;
79403;SDS011;68858;48.642;9.142;2023-12-29T00:58:59;2.10;;;1.90;;
79403;SDS011;68858;48.642;9.142;2023-12-29T01:01:25;1.90;;;1.80;;
79403;SDS011;68858;48.642;9.142;2023-12-29T01:03:50;2.50;;;2.30;;
79403;SDS011;68858;48.642;9.142;2023-12-29T01:06:20;2.60;;;2.17;;
79403;SDS011;68858;48.642;9.142;2023-12-29T01:08:45;2.20;;;2.00;;
79403;SDS011;68858;48.642;9.142;2023-12-29T01:11:11;2.30;;;2.03;;
79403;SDS011;68858;48.642;9.142;2023-12-29T01:13:36;2.03;;;1.93;;
79403;SDS011;68858;48.642;9.142;2023-12-29T01:16:02;2.27;;;2.07;;
79403;SDS011;68858;48.642;9.142;2023-12-29T01:18:27;2.23;;;2.00;;
79403;SDS011;68858;48.642;9.142;2023-12-29T01:20:53;2.73;;;2.47;;
79403;SDS011;68858;48.642;9.142;2023-12-29T01:23:18;2.03;;;1.93;;
79403;SDS011;68858;48.642;9.142;2023-12-29T01:25:44;2.40;;;2.20;;
79403;SDS011;68858;48.642;9.142;2023-12-29T01:28:09;2.20;;;2.10;;
79403;SDS011;68858;48.642;9.142;2023-12-29T01:30:35;2.77;;;2.03;;
79403;SDS011;68858;48.642;9.142;2023-12-29T01:33:00;2.63;;;2.00;;
79403;SDS011;68858;48.642;9.142;2023-12-29T01:35:25;2.47;;;2.27;;
79403;SDS011;68858;48.642;9.142;2023-12-29T01:37:50;2.30;;;2.10;;
79403;SDS011;68858;48.642;9.142;2023-12-29T01:40:16;2.57;;;2.37;;
79403;SDS011;68858;48.642;9.142;2023-12-29T01:42:42;3.43;;;2.23;;
79403;SDS011;68858;48.642;9.142;2023-12-29T01:45:12;2.30;;;2.10;;
79403;SDS011;68858;48.642;9.142;2023-12-29T01:47:47;2.50;;;2.30;;
79403;SDS011;68858;48.642;9.142;2023-12-29T01:50:12;2.83;;;2.17;;
79403;SDS011;68858;48.642;9.142;2023-12-29T01:52:39;2.57;;;2.37;;
79403;SDS011;68858;48.642;9.142;2023-12-29T01:55:05;3.23;;;2.60;;
79403;SDS011;68858;48.642;9.142;2023-12-29T01:57:31;3.33;;;2.50;;
79403;SDS011;68858;48.642;9.142;2023-12-29T02:00:00;2.60;;;2.40;;
79403;SDS011;68858;48.642;9.142;2023-12-29T02:02:26;2.90;;;2.70;;
79403;SDS011;68858;48.642;9.142;2023-12-29T02:04:51;3.17;;;2.30;;
79403;SDS011;68858;48.642;9.142;2023-12-29T02:07:17;2.67;;;2.30;;
79403;SDS011;68858;48.642;9.142;2023-12-29T02:09:42;3.47;;;2.43;;
79403;SDS011;68858;48.642;9.142;2023-12-29T02:12:09;2.20;;;2.00;;
79403;SDS011;68858;48.642;9.142;2023-12-29T02:14:35;5.00;;;2.63;;
79403;SDS011;68858;48.642;9.142;2023-12-29T02:19:56;2.80;;;2.50;;
79403;SDS011;68858;48.642;9.142;2023-12-29T02:22:22;2.70;;;2.30;;
79403;SDS011;68858;48.642;9.142;2023-12-29T02:24:48;3.30;;;2.60;;
79403;SDS011;68858;48.642;9.142;2023-12-29T02:33:10;3.50;;;2.70;;
79403;SDS011;68858;48.642;9.142;2023-12-29T02:35:38;2.70;;;2.50;;
79403;SDS011;68858;48.642;9.142;2023-12-29T02:38:05;3.13;;;2.47;;
79403;SDS011;68858;48.642;9.142;2023-12-29T02:40:30;2.80;;;2.60;;
79403;SDS011;68858;48.642;9.142;2023-12-29T02:42:55;3.13;;;2.60;;
79403;SDS011;68858;48.642;9.142;2023-12-29T02:45:21;4.40;;;2.87;;
79403;SDS011;68858;48.642;9.142;2023-12-29T02:47:46;2.80;;;2.60;;
79403;SDS011;68858;48.642;9.142;2023-12-29T02:50:13;2.77;;;2.57;;
79403;SDS011;68858;48.642;9.142;2023-12-29T02:52:42;2.93;;;2.63;;
79403;SDS011;68858;48.642;9.142;2023-12-29T02:55:07;3.20;;;2.90;;
79403;SDS011;68858;48.642;9.142;2023-12-29T02:57:33;3.90;;;2.70;;
79403;SDS011;68858;48.642;9.142;2023-12-29T02:59:58;3.13;;;2.60;;
79403;SDS011;68858;48.642;9.142;2023-12-29T03:02:24;3.07;;;2.63;;
79403;SDS011;68858;48.642;9.142;2023-12-29T03:04:49;3.27;;;2.80;;
79403;SDS011;68858;48.642;9.142;2023-12-29T03:07:15;4.13;;;2.87;;
79403;SDS011;68858;48.642;9.142;2023-12-29T03:09:40;3.03;;;2.70;;
79403;SDS011;68858;48.642;9.142;2023-12-29T03:12:06;2.80;;;2.60;;
79403;SDS011;68858;48.642;9.142;2023-12-29T03:14:32;3.23;;;2.93;;
79403;SDS011;68858;48.642;9.142;2023-12-29T03:16:57;3.57;;;2.60;;
79403;SDS011;68858;48.642;9.142;2023-12-29T03:19:23;2.83;;;2.57;;
79403;SDS011;68858;48.642;9.142;2023-12-29T03:21:48;3.10;;;2.67;;
79403;SDS011;68858;48.642;9.142;2023-12-29T03:24:14;5.30;;;2.87;;
79403;SDS011;68858;48.642;9.142;2023-12-29T03:26:40;2.80;;;2.60;;
79403;SDS011;68858;48.642;9.142;2023-12-29T03:29:06;3.20;;;2.90;;
79403;SDS011;68858;48.642;9.142;2023-12-29T03:31:32;2.77;;;2.50;;
79403;SDS011;68858;48.642;9.142;2023-12-29T03:33:57;2.57;;;2.37;;
79403;SDS011;68858;48.642;9.142;2023-12-29T03:36:23;3.37;;;2.57;;
79403;SDS011;68858;48.642;9.142;2023-12-29T03:38:50;3.20;;;2.70;;
79403;SDS011;68858;48.642;9.142;2023-12-29T03:41:16;3.87;;;2.73;;
79403;SDS011;68858;48.642;9.142;2023-12-29T03:43:41;2.80;;;2.60;;
79403;SDS011;68858;48.642;9.142;2023-12-29T03:48:42;2.60;;;2.40;;
79403;SDS011;68858;48.642;9.142;2023-12-29T03:51:08;2.60;;;2.40;;
79403;SDS011;68858;48.642;9.142;2023-12-29T03:53:34;3.07;;;2.77;;
79403;SDS011;68858;48.642;9.142;2023-12-29T03:55:59;3.17;;;2.80;;
79403;SDS011;68858;48.642;9.142;2023-12-29T03:58:24;4.10;;;2.77;;
79403;SDS011;68858;48.642;9.142;2023-12-29T04:00:50;3.20;;;2.90;;
79403;SDS011;68858;48.642;9.142;2023-12-29T04:03:15;3.37;;;2.80;;
79403;SDS011;68858;48.642;9.142;2023-12-29T04:05:40;3.20;;;2.90;;
79403;SDS011;68858;48.642;9.142;2023-12-29T04:08:06;2.73;;;2.43;;
79403;SDS011;68858;48.642;9.142;2023-12-29T04:10:31;3.97;;;2.70;;
79403;SDS011;68858;48.642;9.142;2023-12-29T04:12:56;3.47;;;2.63;;
79403;SDS011;68858;48.642;9.142;2023-12-29T04:15:22;3.47;;;3.17;;
79403;SDS011;68858;48.642;9.142;2023-12-29T04:17:48;3.60;;;2.60;;
79403;SDS011;68858;48.642;9.142;2023-12-29T04:20:13;3.07;;;2.73;;
79403;SDS011;68858;48.642;9.142;2023-12-29T04:22:38;3.40;;;2.73;;
79403;SDS011;68858;48.642;9.142;2023-12-29T04:25:04;3.10;;;2.80;;
79403;SDS011;68858;48.642;9.142;2023-12-29T04:27:29;3.03;;;2.70;;
79403;SDS011;68858;48.642;9.142;2023-12-29T04:29:55;2.73;;;2.53;;
79403;SDS011;68858;48.642;9.142;2023-12-29T04:32:21;3.23;;;2.50;;
79403;SDS011;68858;48.642;9.142;2023-12-29T04:34:46;3.67;;;2.90;;
79403;SDS011;68858;48.642;9.142;2023-12-29T04:37:11;2.87;;;2.57;;
79403;SDS011;68858;48.642;9.142;2023-12-29T04:39:37;3.37;;;3.00;;
79403;SDS011;68858;48.642;9.142;2023-12-29T04:42:03;2.63;;;2.40;;
79403;SDS011;68858;48.642;9.142;2023-12-29T04:44:29;2.90;;;2.60;;
79403;SDS011;68858;48.642;9.142;2023-12-29T04:46:54;2.80;;;2.60;;
79403;SDS011;68858;48.642;9.142;2023-12-29T04:49:19;2.63;;;2.43;;
79403;SDS011;68858;48.642;9.142;2023-12-29T04:51:45;2.83;;;2.63;;
79403;SDS011;68858;48.642;9.142;2023-12-29T04:54:13;2.90;;;2.60;;
79403;SDS011;68858;48.642;9.142;2023-12-29T04:56:39;2.97;;;2.60;;
79403;SDS011;68858;48.642;9.142;2023-12-29T04:59:04;3.07;;;2.77;;
79403;SDS011;68858;48.642;9.142;2023-12-29T05:01:30;3.63;;;2.90;;
79403;SDS011;68858;48.642;9.142;2023-12-29T05:03:55;2.60;;;2.40;;
79403;SDS011;68858;48.642;9.142;2023-12-29T05:06:21;2.83;;;2.53;;
79403;SDS011;68858;48.642;9.142;2023-12-29T05:08:46;4.80;;;4.37;;
79403;SDS011;68858;48.642;9.142;2023-12-29T05:11:11;2.70;;;2.50;;
79403;SDS011;68858;48.642;9.142;2023-12-29T05:13:37;3.00;;;2.50;;
79403;SDS011;68858;48.642;9.142;2023-12-29T05:16:02;2.70;;;2.50;;
79403;SDS011;68858;48.642;9.142;2023-12-29T05:18:29;2.47;;;2.23;;
79403;SDS011;68858;48.642;9.142;2023-12-29T05:20:55;2.60;;;2.40;;
79403;SDS011;68858;48.642;9.142;2023-12-29T05:23:20;2.80;;;2.60;;
79403;SDS011;68858;48.642;9.142;2023-12-29T05:25:45;3.33;;;2.50;;
79403;SDS011;68858;48.642;9.142;2023-12-29T05:28:11;2.97;;;2.67;;
79403;SDS011;68858;48.642;9.142;2023-12-29T05:30:36;2.80;;;2.53;;
79403;SDS011;68858;48.642;9.142;2023-12-29T05:33:03;2.60;;;2.40;;
79403;SDS011;68858;48.642;9.142;2023-12-29T05:35:29;2.60;;;2.40;;
79403;SDS011;68858;48.642;9.142;2023-12-29T05:37:54;2.83;;;2.53;;
79403;SDS011;68858;48.642;9.142;2023-12-29T05:40:19;3.23;;;2.50;;
79403;SDS011;68858;48.642;9.142;2023-12-29T05:42:45;3.20;;;2.50;;
79403;SDS011;68858;48.642;9.142;2023-12-29T05:45:10;2.57;;;2.37;;
79403;SDS011;68858;48.642;9.142;2023-12-29T05:47:36;2.50;;;2.30;;
79403;SDS011;68858;48.642;9.142;2023-12-29T05:50:01;3.17;;;2.43;;
79403;SDS011;68858;48.642;9.142;2023-12-29T05:52:26;2.80;;;2.60;;
79403;SDS011;68858;48.642;9.142;2023-12-29T05:54:52;2.50;;;2.30;;
79403;SDS011;68858;48.642;9.142;2023-12-29T05:57:17;2.63;;;2.43;;
79403;SDS011;68858;48.642;9.142;2023-12-29T05:59:42;3.03;;;2.40;;
79403;SDS011;68858;48.642;9.142;2023-12-29T06:02:08;2.73;;;2.10;;
79403;SDS011;68858;48.642;9.142;2023-12-29T06:04:33;3.70;;;2.90;;
79403;SDS011;68858;48.642;9.142;2023-12-29T06:06:59;2.57;;;2.37;;
79403;SDS011;68858;48.642;9.142;2023-12-29T06:09:25;3.00;;;2.40;;
79403;SDS011;68858;48.642;9.142;2023-12-29T06:11:50;2.60;;;2.40;;
79403;SDS011;68858;48.642;9.142;2023-12-29T06:14:17;2.43;;;2.10;;
79403;SDS011;68858;48.642;9.142;2023-12-29T06:16:42;3.10;;;2.50;;
79403;SDS011;68858;48.642;9.142;2023-12-29T06:19:08;7.87;;;5.90;;
79403;SDS011;68858;48.642;9.142;2023-12-29T06:21:40;11.70;;;8.70;;
79403;SDS011;68858;48.642;9.142;2023-12-29T06:24:08;2.73;;;2.53;;
79403;SDS011;68858;48.642;9.142;2023-12-29T06:26:35;3.07;;;2.77;;
79403;SDS011;68858;48.642;9.142;2023-12-29T06:29:00;2.50;;;2.30;;
79403;SDS011;68858;48.642;9.142;2023-12-29T06:31:25;2.73;;;2.30;;
79403;SDS011;68858;48.642;9.142;2023-12-29T06:33:51;2.50;;;2.30;;
79403;SDS011;68858;48.642;9.142;2023-12-29T06:36:16;2.63;;;2.43;;
79403;SDS011;68858;48.642;9.142;2023-12-29T06:38:42;2.50;;;2.30;;
79403;SDS011;68858;48.642;9.142;2023-12-29T06:41:13;2.60;;;2.40;;
79403;SDS011;68858;48.642;9.142;2023-12-29T06:43:39;2.60;;;2.33;;
79403;SDS011;68858;48.642;9.142;2023-12-29T06:46:04;2.40;;;2.20;;
79403;SDS011;68858;48.642;9.142;2023-12-29T06:48:30;2.63;;;2.40;;
79403;SDS011;68858;48.642;9.142;2023-12-29T06:50:55;2.57;;;2.37;;
79403;SDS011;68858;48.642;9.142;2023-12-29T06:53:21;2.47;;;2.13;;
79403;SDS011;68858;48.642;9.142;2023-12-29T06:55:46;2.47;;;2.27;;
79403;SDS011;68858;48.642;9.142;2023-12-29T06:58:12;3.07;;;2.43;;
79403;SDS011;68858;48.642;9.142;2023-12-29T07:00:37;3.07;;;2.27;;
79403;SDS011;68858;48.642;9.142;2023-12-29T07:03:03;2.60;;;2.40;;
79403;SDS011;68858;48.642;9.142;2023-12-29T07:05:28;2.53;;;2.30;;
79403;SDS011;68858;48.642;9.142;2023-12-29T07:07:54;2.77;;;2.20;;
79403;SDS011;68858;48.642;9.142;2023-12-29T07:10:19;2.53;;;2.33;;
79403;SDS011;68858;48.642;9.142;2023-12-29T07:12:45;2.30;;;2.10;;
79403;SDS011;68858;48.642;9.142;2023-12-29T07:15:11;2.47;;;2.27;;
79403;SDS011;68858;48.642;9.142;2023-12-29T07:17:39;2.27;;;2.13;;
79403;SDS011;68858;48.642;9.142;2023-12-29T07:20:05;2.50;;;2.30;;
79403;SDS011;68858;48.642;9.142;2023-12-29T07:22:32;2.77;;;2.57;;
79403;SDS011;68858;48.642;9.142;2023-12-29T07:24:58;4.40;;;4.00;;
79403;SDS011;68858;48.642;9.142;2023-12-29T07:27:24;4.03;;;3.40;;
79403;SDS011;68858;48.642;9.142;2023-12-29T07:29:49;2.70;;;2.50;;
79403;SDS011;68858;48.642;9.142;2023-12-29T07:32:15;2.80;;;2.47;;
79403;SDS011;68858;48.642;9.142;2023-12-29T07:34:40;2.70;;;2.30;;
79403;SDS011;68858;48.642;9.142;2023-12-29T07:37:06;2.50;;;2.30;;
79403;SDS011;68858;48.642;9.142;2023-12-29T07:39:31;2.40;;;2.20;;
79403;SDS011;68858;48.642;9.142;2023-12-29T07:41:57;2.53;;;2.33;;
79403;SDS011;68858;48.642;9.142;2023-12-29T07:44:22;2.80;;;2.50;;
79403;SDS011;68858;48.642;9.142;2023-12-29T07:46:48;2.43;;;2.23;;
79403;SDS011;68858;48.642;9.142;2023-12-29T07:49:13;3.37;;;2.80;;
79403;SDS011;68858;48.642;9.142;2023-12-29T07:51:41;3.33;;;2.50;;
79403;SDS011;68858;48.642;9.142;2023-12-29T07:54:07;2.97;;;2.77;;
79403;SDS011;68858;48.642;9.142;2023-12-29T07:56:33;2.73;;;2.53;;
79403;SDS011;68858;48.642;9.142;2023-12-29T07:58:59;3.10;;;2.80;;
79403;SDS011;68858;48.642;9.142;2023-12-29T08:01:24;2.50;;;2.30;;
79403;SDS011;68858;48.642;9.142;2023-12-29T08:03:51;3.43;;;2.40;;
79403;SDS011;68858;48.642;9.142;2023-12-29T08:06:16;2.63;;;2.43;;
79403;SDS011;68858;48.642;9.142;2023-12-29T08:08:42;3.10;;;2.40;;
79403;SDS011;68858;48.642;9.142;2023-12-29T08:11:14;2.60;;;2.40;;
79403;SDS011;68858;48.642;9.142;2023-12-29T08:13:41;2.50;;;2.30;;
79403;SDS011;68858;48.642;9.142;2023-12-29T08:16:08;2.43;;;2.23;;
79403;SDS011;68858;48.642;9.142;2023-12-29T08:18:33;2.63;;;2.40;;
79403;SDS011;68858;48.642;9.142;2023-12-29T08:20:59;2.67;;;2.33;;
79403;SDS011;68858;48.642;9.142;2023-12-29T08:23:25;2.43;;;2.23;;
79403;SDS011;68858;48.642;9.142;2023-12-29T08:25:51;2.50;;;2.30;;
79403;SDS011;68858;48.642;9.142;2023-12-29T08:28:17;2.40;;;2.20;;
79403;SDS011;68858;48.642;9.142;2023-12-29T08:30:42;2.50;;;2.30;;
79403;SDS011;68858;48.642;9.142;2023-12-29T08:33:10;2.30;;;2.10;;
79403;SDS011;68858;48.642;9.142;2023-12-29T08:35:37;2.33;;;2.13;;
79403;SDS011;68858;48.642;9.142;2023-12-29T08:38:03;2.47;;;2.03;;
79403;SDS011;68858;48.642;9.142;2023-12-29T08:40:28;2.30;;;2.10;;
79403;SDS011;68858;48.642;9.142;2023-12-29T08:42:54;2.40;;;2.20;;
79403;SDS011;68858;48.642;9.142;2023-12-29T08:45:20;1.97;;;1.73;;
79403;SDS011;68858;48.642;9.142;2023-12-29T08:47:45;2.40;;;2.20;;
79403;SDS011;68858;48.642;9.142;2023-12-29T08:50:11;2.17;;;1.80;;
79403;SDS011;68858;48.642;9.142;2023-12-29T08:52:36;1.90;;;1.70;;
79403;SDS011;68858;48.642;9.142;2023-12-29T08:55:02;2.20;;;2.00;;
79403;SDS011;68858;48.642;9.142;2023-12-29T08:57:28;1.80;;;1.70;;
79403;SDS011;68858;48.642;9.142;2023-12-29T08:59:54;1.80;;;1.70;;
79403;SDS011;68858;48.642;9.142;2023-12-29T09:02:20;2.73;;;2.23;;
79403;SDS011;68858;48.642;9.142;2023-12-29T09:04:45;2.03;;;1.80;;
79403;SDS011;68858;48.642;9.142;2023-12-29T09:07:10;1.83;;;1.70;;
79403;SDS011;68858;48.642;9.142;2023-12-29T09:09:36;2.20;;;1.73;;
79403;SDS011;68858;48.642;9.142;2023-12-29T09:12:01;2.20;;;2.00;;
79403;SDS011;68858;48.642;9.142;2023-12-29T09:14:27;2.03;;;1.70;;
79403;SDS011;68858;48.642;9.142;2023-12-29T09:16:55;2.30;;;1.90;;
79403;SDS011;68858;48.642;9.142;2023-12-29T09:19:20;1.87;;;1.77;;
79403;SDS011;68858;48.642;9.142;2023-12-29T09:21:46;2.50;;;1.70;;
79403;SDS011;68858;48.642;9.142;2023-12-29T09:24:11;2.80;;;2.03;;
79403;SDS011;68858;48.642;9.142;2023-12-29T09:26:36;1.90;;;1.80;;
79403;SDS011;68858;48.642;9.142;2023-12-29T09:29:02;1.80;;;1.70;;
79403;SDS011;68858;48.642;9.142;2023-12-29T09:31:27;2.10;;;1.80;;
79403;SDS011;68858;48.642;9.142;2023-12-29T09:33:52;2.17;;;1.90;;
79403;SDS011;68858;48.642;9.142;2023-12-29T09:36:18;2.20;;;1.90;;
79403;SDS011;68858;48.642;9.142;2023-12-29T09:38:43;2.17;;;1.90;;
79403;SDS011;68858;48.642;9.142;2023-12-29T09:41:11;1.93;;;1.77;;
79403;SDS011;68858;48.642;9.142;2023-12-29T09:43:40;2.80;;;1.80;;
79403;SDS011;68858;48.642;9.142;2023-12-29T09:46:06;2.13;;;1.93;;
79403;SDS011;68858;48.642;9.142;2023-12-29T09:48:32;1.80;;;1.50;;
79403;SDS011;68858;48.642;9.142;2023-12-29T09:50:58;1.90;;;1.80;;
79403;SDS011;68858;48.642;9.142;2023-12-29T09:53:23;1.70;;;1.60;;
79403;SDS011;68858;48.642;9.142;2023-12-29T09:55:49;2.00;;;1.70;;
79403;SDS011;68858;48.642;9.142;2023-12-29T09:58:17;1.80;;;1.70;;
79403;SDS011;68858;48.642;9.142;2023-12-29T10:00:47;1.90;;;1.67;;
79403;SDS011;68858;48.642;9.142;2023-12-29T10:03:14;2.33;;;1.70;;
79403;SDS011;68858;48.642;9.142;2023-12-29T10:05:39;2.03;;;1.70;;
79403;SDS011;68858;48.642;9.142;2023-12-29T10:08:05;1.83;;;1.73;;
79403;SDS011;68858;48.642;9.142;2023-12-29T10:10:33;1.70;;;1.60;;
79403;SDS011;68858;48.642;9.142;2023-12-29T10:13:00;1.73;;;1.63;;
79403;SDS011;68858;48.642;9.142;2023-12-29T10:15:43;2.43;;;2.10;;
79403;SDS011;68858;48.642;9.142;2023-12-29T10:18:36;1.83;;;1.67;;
79403;SDS011;68858;48.642;9.142;2023-12-29T10:21:37;1.77;;;1.67;;
79403;SDS011;68858;48.642;9.142;2023-12-29T10:23:58;1.70;;;1.60;;
79403;SDS011;68858;48.642;9.142;2023-12-29T10:26:31;1.40;;;1.30;;
79403;SDS011;68858;48.642;9.142;2023-12-29T10:28:57;2.33;;;1.60;;
79403;SDS011;68858;48.642;9.142;2023-12-29T10:31:24;1.70;;;1.60;;
79403;SDS011;68858;48.642;9.142;2023-12-29T10:33:50;1.70;;;1.60;;
79403;SDS011;68858;48.642;9.142;2023-12-29T10:36:16;1.60;;;1.30;;
79403;SDS011;68858;48.642;9.142;2023-12-29T10:38:42;1.40;;;1.30;;
79403;SDS011;68858;48.642;9.142;2023-12-29T10:41:14;1.47;;;1.30;;
79403;SDS011;68858;48.642;9.142;2023-12-29T10:43:42;1.83;;;1.30;;
79403;SDS011;68858;48.642;9.142;2023-12-29T10:46:09;1.40;;;1.30;;
79403;SDS011;68858;48.642;9.142;2023-12-29T10:48:38;1.37;;;1.27;;
79403;SDS011;68858;48.642;9.142;2023-12-29T10:51:04;1.40;;;1.30;;
79403;SDS011;68858;48.642;9.142;2023-12-29T10:53:33;1.43;;;1.33;;
79403;SDS011;68858;48.642;9.142;2023-12-29T10:55:59;1.57;;;1.47;;
79403;SDS011;68858;48.642;9.142;2023-12-29T10:58:28;1.40;;;1.30;;
79403;SDS011;68858;48.642;9.142;2023-12-29T11:00:55;1.20;;;1.10;;
79403;SDS011;68858;48.642;9.142;2023-12-29T11:03:26;2.10;;;1.67;;
79403;SDS011;68858;48.642;9.142;2023-12-29T11:05:58;1.23;;;1.10;;
79403;SDS011;68858;48.642;9.142;2023-12-29T11:08:25;0.90;;;0.90;;
79403;SDS011;68858;48.642;9.142;2023-12-29T11:10:50;1.27;;;1.17;;
79403;SDS011;68858;48.642;9.142;2023-12-29T11:13:16;2.37;;;1.10;;
79403;SDS011;68858;48.642;9.142;2023-12-29T11:15:42;1.83;;;1.30;;
79403;SDS011;68858;48.642;9.142;2023-12-29T11:18:13;1.30;;;1.20;;
79403;SDS011;68858;48.642;9.142;2023-12-29T11:20:39;1.43;;;1.23;;
79403;SDS011;68858;48.642;9.142;2023-12-29T11:23:06;1.77;;;1.10;;
79403;SDS011;68858;48.642;9.142;2023-12-29T11:25:33;1.60;;;1.20;;
79403;SDS011;68858;48.642;9.142;2023-12-29T11:27:58;1.00;;;1.00;;
79403;SDS011;68858;48.642;9.142;2023-12-29T11:30:24;1.50;;;1.40;;
79403;SDS011;68858;48.642;9.142;2023-12-29T11:32:55;2.20;;;1.10;;
79403;SDS011;68858;48.642;9.142;2023-12-29T11:40:33;1.33;;;1.00;;
79403;SDS011;68858;48.642;9.142;2023-12-29T11:43:00;1.00;;;1.00;;
79403;SDS011;68858;48.642;9.142;2023-12-29T11:45:29;1.60;;;1.07;;
79403;SDS011;68858;48.642;9.142;2023-12-29T11:48:01;0.77;;;0.77;;
79403;SDS011;68858;48.642;9.142;2023-12-29T11:52:56;1.63;;;0.90;;
79403;SDS011;68858;48.642;9.142;2023-12-29T11:55:21;2.27;;;1.10;;
79403;SDS011;68858;48.642;9.142;2023-12-29T11:57:56;1.50;;;1.40;;
79403;SDS011;68858;48.642;9.142;2023-12-29T12:03:15;1.10;;;1.00;;
79403;SDS011;68858;48.642;9.142;2023-12-29T12:05:51;1.23;;;1.00;;
79403;SDS011;68858;48.642;9.142;2023-12-29T12:13:53;1.10;;;1.00;;
79403;SDS011;68858;48.642;9.142;2023-12-29T12:19:23;0.80;;;0.80;;
79403;SDS011;68858;48.642;9.142;2023-12-29T12:21:52;0.90;;;0.90;;
79403;SDS011;68858;48.642;9.142;2023-12-29T12:24:19;1.47;;;1.37;;
79403;SDS011;68858;48.642;9.142;2023-12-29T12:26:45;1.13;;;1.03;;
79403;SDS011;68858;48.642;9.142;2023-12-29T12:29:12;1.10;;;1.00;;
79403;SDS011;68858;48.642;9.142;2023-12-29T12:31:51;1.30;;;1.20;;
79403;SDS011;68858;48.642;9.142;2023-12-29T12:34:20;1.20;;;1.10;;
79403;SDS011;68858;48.642;9.142;2023-12-29T12:36:50;1.00;;;1.00;;
79403;SDS011;68858;48.642;9.142;2023-12-29T12:39:15;1.50;;;1.00;;
79403;SDS011;68858;48.642;9.142;2023-12-29T12:41:41;1.40;;;1.03;;
79403;SDS011;68858;48.642;9.142;2023-12-29T12:46:35;1.00;;;1.00;;
79403;SDS011;68858;48.642;9.142;2023-12-29T12:49:15;1.10;;;1.00;;
79403;SDS011;68858;48.642;9.142;2023-12-29T12:51:41;1.03;;;1.00;;
79403;SDS011;68858;48.642;9.142;2023-12-29T12:54:08;1.40;;;0.97;;
79403;SDS011;68858;48.642;9.142;2023-12-29T12:56:34;1.10;;;1.00;;
79403;SDS011;68858;48.642;9.142;2023-12-29T12:59:01;1.07;;;1.00;;
79403;SDS011;68858;48.642;9.142;2023-12-29T13:01:27;1.63;;;1.13;;
79403;SDS011;68858;48.642;9.142;2023-12-29T13:03:52;1.23;;;1.00;;
79403;SDS011;68858;48.642;9.142;2023-12-29T13:06:18;1.17;;;1.07;;
79403;SDS011;68858;48.642;9.142;2023-12-29T13:08:44;1.43;;;1.20;;
79403;SDS011;68858;48.642;9.142;2023-12-29T13:11:11;1.20;;;1.00;;
79403;SDS011;68858;48.642;9.142;2023-12-29T13:13:39;1.20;;;1.10;;
79403;SDS011;68858;48.642;9.142;2023-12-29T13:16:05;1.60;;;1.00;;
79403;SDS011;68858;48.642;9.142;2023-12-29T13:18:30;2.00;;;1.10;;
79403;SDS011;68858;48.642;9.142;2023-12-29T13:21:00;2.43;;;1.40;;
79403;SDS011;68858;48.642;9.142;2023-12-29T13:23:26;1.30;;;1.20;;
79403;SDS011;68858;48.642;9.142;2023-12-29T13:26:10;0.97;;;0.97;;
79403;SDS011;68858;48.642;9.142;2023-12-29T13:28:37;1.23;;;1.07;;
79403;SDS011;68858;48.642;9.142;2023-12-29T13:31:07;0.90;;;0.90;;
79403;SDS011;68858;48.642;9.142;2023-12-29T13:33:38;1.17;;;0.93;;
79403;SDS011;68858;48.642;9.142;2023-12-29T13:36:26;1.50;;;0.90;;
79403;SDS011;68858;48.642;9.142;2023-12-29T13:39:03;1.50;;;0.97;;
79403;SDS011;68858;48.642;9.142;2023-12-29T13:41:33;0.90;;;0.90;;
79403;SDS011;68858;48.642;9.142;2023-12-29T13:43:58;0.90;;;0.90;;
79403;SDS011;68858;48.642;9.142;2023-12-29T13:46:25;2.13;;;1.03;;
79403;SDS011;68858;48.642;9.142;2023-12-29T13:48:50;2.00;;;1.10;;
79403;SDS011;68858;48.642;9.142;2023-12-29T13:51:16;1.23;;;1.00;;
79403;SDS011;68858;48.642;9.142;2023-12-29T13:53:42;1.27;;;1.10;;
79403;SDS011;68858;48.642;9.142;2023-12-29T13:56:08;1.50;;;1.20;;
79403;SDS011;68858;48.642;9.142;2023-12-29T13:58:34;1.73;;;1.20;;
79403;SDS011;68858;48.642;9.142;2023-12-29T14:01:00;1.20;;;1.00;;
79403;SDS011;68858;48.642;9.142;2023-12-29T14:03:34;1.07;;;1.00;;
79403;SDS011;68858;48.642;9.142;2023-12-29T14:06:11;1.00;;;1.00;;
79403;SDS011;68858;48.642;9.142;2023-12-29T14:08:39;1.20;;;1.10;;
79403;SDS011;68858;48.642;9.142;2023-12-29T14:11:08;1.67;;;1.17;;
79403;SDS011;68858;48.642;9.142;2023-12-29T14:13:35;2.00;;;1.30;;
79403;SDS011;68858;48.642;9.142;2023-12-29T14:16:00;1.57;;;1.10;;
79403;SDS011;68858;48.642;9.142;2023-12-29T14:21:28;1.73;;;0.90;;
79403;SDS011;68858;48.642;9.142;2023-12-29T14:24:09;1.20;;;0.90;;
79403;SDS011;68858;48.642;9.142;2023-12-29T14:26:39;1.20;;;1.00;;
79403;SDS011;68858;48.642;9.142;2023-12-29T14:29:07;1.17;;;1.07;;
79403;SDS011;68858;48.642;9.142;2023-12-29T14:31:41;1.37;;;1.27;;
79403;SDS011;68858;48.642;9.142;2023-12-29T14:34:07;1.30;;;1.20;;
79403;SDS011;68858;48.642;9.142;2023-12-29T14:36:33;2.00;;;1.30;;
79403;SDS011;68858;48.642;9.142;2023-12-29T14:39:00;1.10;;;1.00;;
79403;SDS011;68858;48.642;9.142;2023-12-29T14:41:26;1.10;;;1.00;;
79403;SDS011;68858;48.642;9.142;2023-12-29T14:43:52;2.00;;;1.80;;
79403;SDS011;68858;48.642;9.142;2023-12-29T14:46:18;2.13;;;1.40;;
79403;SDS011;68858;48.642;9.142;2023-12-29T14:48:43;0.90;;;0.90;;
79403;SDS011;68858;48.642;9.142;2023-12-29T14:51:09;1.20;;;1.10;;
79403;SDS011;68858;48.642;9.142;2023-12-29T14:53:35;1.10;;;1.00;;
79403;SDS011;68858;48.642;9.142;2023-12-29T14:56:00;1.30;;;1.10;;
79403;SDS011;68858;48.642;9.142;2023-12-29T14:58:25;1.20;;;1.10;;
79403;SDS011;68858;48.642;9.142;2023-12-29T15:00:51;1.97;;;1.13;;
79403;SDS011;68858;48.642;9.142;2023-12-29T15:03:16;1.10;;;1.00;;
79403;SDS011;68858;48.642;9.142;2023-12-29T15:05:45;3.20;;;2.50;;
79403;SDS011;68858;48.642;9.142;2023-12-29T15:08:11;1.97;;;1.87;;
79403;SDS011;68858;48.642;9.142;2023-12-29T15:10:37;1.30;;;1.20;;
79403;SDS011;68858;48.642;9.142;2023-12-29T15:13:02;1.70;;;1.30;;
79403;SDS011;68858;48.642;9.142;2023-12-29T15:15:28;3.07;;;2.40;;
79403;SDS011;68858;48.642;9.142;2023-12-29T15:17:55;1.80;;;1.27;;
79403;SDS011;68858;48.642;9.142;2023-12-29T15:20:20;1.63;;;1.10;;